createdAt,value
2022-08-18T00:01:14.837Z,85.96
2022-08-18T00:03:56.144Z,86.17
2022-08-18T00:06:29.608Z,86.02
2022-08-18T00:09:00.040Z,86.84
2022-08-18T00:11:41.045Z,88.36
2022-08-18T00:14:22.730Z,88.60
2022-08-18T00:16:54.675Z,88.57
2022-08-18T00:19:45.699Z,88.64
2022-08-18T00:22:16.653Z,88.80
2022-08-18T00:24:48.374Z,88.48
2022-08-18T00:27:23.376Z,88.00
2022-08-18T00:29:53.196Z,88.12
2022-08-18T00:32:24.120Z,89.94
2022-08-18T00:34:54.854Z,90.72
2022-08-18T00:37:25.303Z,91.79
2022-08-18T00:39:54.699Z,92.51
2022-08-18T00:42:30.022Z,92.74
2022-08-18T00:45:01.876Z,92.90
2022-08-18T00:47:33.068Z,92.69
2022-08-18T00:50:17.304Z,93.53
2022-08-18T00:52:53.494Z,93.10
2022-08-18T00:55:23.475Z,91.95
2022-08-18T00:57:55.652Z,91.68
2022-08-18T01:00:23.831Z,92.17
2022-08-18T01:02:57.765Z,92.34
2022-08-18T01:05:32.203Z,93.32
2022-08-18T01:08:00.876Z,93.40
2022-08-18T01:10:29.093Z,94.88
2022-08-18T01:12:59.454Z,95.13
2022-08-18T01:15:30.445Z,95.36
2022-08-18T01:18:19.421Z,94.56
2022-08-18T01:21:15.493Z,94.72
2022-08-18T01:23:46.362Z,94.46
2022-08-18T01:26:16.861Z,94.90
2022-08-18T01:28:47.175Z,95.37
2022-08-18T01:31:33.665Z,95.45
2022-08-18T01:34:02.078Z,96.33
2022-08-18T01:36:30.406Z,95.74
2022-08-18T01:39:00.284Z,95.40
2022-08-18T01:41:30.813Z,95.51
2022-08-18T01:44:00.933Z,96.63
2022-08-18T01:46:31.695Z,96.92
2022-08-18T01:49:01.329Z,96.02
2022-08-18T01:51:34.775Z,97.79
2022-08-18T01:54:12.607Z,99.04
2022-08-18T01:56:42.260Z,99.12
2022-08-18T01:59:14.495Z,99.36
2022-08-18T02:01:50.613Z,100.00
2022-08-18T02:04:41.345Z,100.00
2022-08-18T02:07:11.772Z,100.00
2022-08-18T02:09:42.935Z,100.00
2022-08-18T02:12:12.303Z,100.00
2022-08-18T02:14:40.819Z,100.00
2022-08-18T02:17:11.002Z,100.00
2022-08-18T02:19:42.110Z,100.00
2022-08-18T02:22:12.174Z,100.00
2022-08-18T02:24:42.174Z,100.00
2022-08-18T02:27:12.536Z,100.00
2022-08-18T02:29:41.638Z,100.00
2022-08-18T02:32:09.893Z,100.00
2022-08-18T02:34:38.439Z,100.00
2022-08-18T02:37:06.744Z,100.00
2022-08-18T02:39:35.813Z,100.00
2022-08-18T02:42:06.521Z,100.00
2022-08-18T02:44:35.039Z,100.00
2022-08-18T02:47:03.486Z,100.00
2022-08-18T02:49:31.659Z,100.00
2022-08-18T02:51:59.895Z,100.00
2022-08-18T02:54:28.090Z,100.00
2022-08-18T02:56:57.357Z,100.00
2022-08-18T02:59:28.307Z,100.00
2022-08-18T03:02:00.321Z,100.00
2022-08-18T03:04:31.301Z,100.00
2022-08-18T03:07:01.560Z,100.00
2022-08-18T03:09:31.562Z,100.00
2022-08-18T03:12:00.129Z,100.00
2022-08-18T03:14:30.421Z,100.00
2022-08-18T03:16:58.730Z,100.00
2022-08-18T03:19:28.954Z,100.00
2022-08-18T03:21:59.353Z,100.00
2022-08-18T03:24:32.247Z,100.00
2022-08-18T03:27:01.837Z,100.00
2022-08-18T03:29:32.931Z,100.00
2022-08-18T03:32:02.351Z,100.00
2022-08-18T03:34:32.238Z,100.00
2022-08-18T03:37:00.837Z,100.00
2022-08-18T03:39:29.826Z,100.00
2022-08-18T03:42:01.428Z,100.00
2022-08-18T03:44:33.689Z,100.00
2022-08-18T03:47:03.775Z,100.00
2022-08-18T03:49:33.658Z,100.00
2022-08-18T03:52:02.989Z,100.00
2022-08-18T03:54:33.384Z,100.00
2022-08-18T03:57:02.278Z,100.00
2022-08-18T03:59:33.251Z,100.00
2022-08-18T04:02:04.355Z,100.00
2022-08-18T04:04:32.945Z,100.00
2022-08-18T04:07:05.517Z,100.00
2022-08-18T04:09:35.628Z,100.00
2022-08-18T04:12:16.391Z,100.00
2022-08-18T04:14:49.345Z,100.00
2022-08-18T04:17:20.360Z,100.00
2022-08-18T04:19:48.540Z,100.00
2022-08-18T04:22:18.384Z,100.00
2022-08-18T04:24:47.389Z,100.00
2022-08-18T04:27:18.995Z,100.00
2022-08-18T04:29:48.849Z,100.00
2022-08-18T04:32:17.257Z,100.00
2022-08-18T04:34:45.410Z,100.00
2022-08-18T04:37:15.399Z,100.00
2022-08-18T04:39:45.494Z,100.00
2022-08-18T04:42:13.794Z,100.00
2022-08-18T04:44:42.577Z,100.00
2022-08-18T04:47:13.207Z,100.00
2022-08-18T04:49:41.541Z,100.00
2022-08-18T04:52:40.525Z,100.00
2022-08-18T04:55:11.252Z,100.00
2022-08-18T04:57:39.798Z,100.00
2022-08-18T05:00:12.011Z,100.00
2022-08-18T05:02:41.809Z,100.00
2022-08-18T05:05:11.278Z,100.00
2022-08-18T05:07:45.826Z,100.00
2022-08-18T05:10:17.495Z,100.00
2022-08-18T05:12:48.441Z,100.00
2022-08-18T05:15:17.658Z,100.00
2022-08-18T05:17:50.645Z,100.00
2022-08-18T05:20:20.269Z,99.98
2022-08-18T05:22:49.455Z,99.10
2022-08-18T05:25:17.816Z,99.18
2022-08-18T05:27:46.041Z,99.78
2022-08-18T05:30:15.235Z,96.41
2022-08-18T05:32:49.700Z,97.16
2022-08-18T05:35:24.218Z,97.79
2022-08-18T05:38:08.077Z,97.84
2022-08-18T05:40:37.544Z,95.14
2022-08-18T05:43:07.880Z,94.98
2022-08-18T05:45:36.634Z,93.66
2022-08-18T05:48:05.117Z,88.25
2022-08-18T05:50:38.286Z,88.08
2022-08-18T05:53:14.030Z,87.64
2022-08-18T05:56:07.068Z,88.19
2022-08-18T05:58:42.638Z,88.92
2022-08-18T06:01:17.353Z,88.86
2022-08-18T06:03:50.457Z,89.14
2022-08-18T06:06:25.244Z,90.61
2022-08-18T06:08:58.905Z,89.62
2022-08-18T06:11:27.066Z,88.88
2022-08-18T06:13:59.445Z,86.61
2022-08-18T06:16:45.333Z,85.28
2022-08-18T06:19:29.426Z,85.83
2022-08-18T06:22:06.799Z,87.73
2022-08-18T06:24:42.943Z,87.04
2022-08-18T06:27:19.964Z,85.19
2022-08-18T06:30:04.531Z,83.03
2022-08-18T06:32:48.501Z,83.62
2022-08-18T06:35:25.498Z,81.29
2022-08-18T06:38:22.947Z,80.05
2022-08-18T06:41:01.341Z,80.03
2022-08-18T06:43:34.286Z,79.27
2022-08-18T06:46:04.154Z,79.43
2022-08-18T06:48:38.771Z,79.65
2022-08-18T06:51:09.258Z,79.44
2022-08-18T06:53:58.021Z,80.92
2022-08-18T06:56:34.916Z,79.98
2022-08-18T06:59:20.362Z,77.81
2022-08-18T07:01:53.106Z,78.05
2022-08-18T07:04:40.417Z,77.09
2022-08-18T07:07:18.557Z,76.44
2022-08-18T07:09:49.265Z,74.01
2022-08-18T07:12:26.652Z,74.26
2022-08-18T07:15:01.564Z,73.97
2022-08-18T07:17:42.134Z,75.51
2022-08-18T07:20:21.418Z,73.13
2022-08-18T07:22:55.915Z,72.69
2022-08-18T07:25:29.247Z,72.44
2022-08-18T07:27:57.470Z,72.09
2022-08-18T07:30:33.062Z,71.09
2022-08-18T07:33:09.507Z,71.15
2022-08-18T07:35:42.003Z,71.65
2022-08-18T07:38:40.949Z,71.41
2022-08-18T07:41:13.811Z,71.16
2022-08-18T07:43:51.231Z,69.57
2022-08-18T07:46:28.154Z,70.94
2022-08-18T07:48:58.674Z,68.66
2022-08-18T07:51:43.436Z,69.76
2022-08-18T07:54:48.322Z,68.38
2022-08-18T07:57:26.069Z,66.39
2022-08-18T08:00:02.638Z,67.64
2022-08-18T08:02:55.062Z,66.18
2022-08-18T08:05:39.877Z,65.84
2022-08-18T08:08:25.071Z,65.17
2022-08-18T08:11:09.126Z,65.41
2022-08-18T08:13:55.822Z,66.90
2022-08-18T08:16:36.811Z,66.21
2022-08-18T08:19:16.336Z,65.30
2022-08-18T08:21:52.627Z,62.43
2022-08-18T08:24:30.326Z,61.34
2022-08-18T08:27:06.159Z,60.61
2022-08-18T08:29:45.358Z,59.66
2022-08-18T08:32:16.845Z,58.44
2022-08-18T08:34:50.902Z,59.56
2022-08-18T08:37:23.234Z,59.47
2022-08-18T08:39:57.835Z,58.52
2022-08-18T08:42:38.641Z,58.96
2022-08-18T08:45:16.943Z,57.88
2022-08-18T08:47:53.115Z,56.64
2022-08-18T08:50:26.321Z,57.14
2022-08-18T08:52:59.058Z,57.37
2022-08-18T08:55:30.522Z,56.21
2022-08-18T08:58:11.850Z,55.87
2022-08-18T09:00:43.343Z,53.88
2022-08-18T09:03:30.207Z,53.72
2022-08-18T09:06:06.345Z,52.66
2022-08-18T09:08:51.675Z,52.95
2022-08-18T09:11:54.767Z,53.75
2022-08-18T09:14:53.955Z,54.29
2022-08-18T09:17:43.886Z,52.83
2022-08-18T09:20:29.087Z,54.20
2022-08-18T09:23:09.695Z,53.57
2022-08-18T09:25:48.840Z,53.16
2022-08-18T09:28:19.208Z,52.69
2022-08-18T09:30:55.119Z,52.59
2022-08-18T09:33:54.024Z,51.43
2022-08-18T09:36:34.405Z,52.42
2022-08-18T09:39:38.139Z,50.63
2022-08-18T09:42:14.201Z,51.43
2022-08-18T09:45:04.230Z,50.97
2022-08-18T09:47:58.718Z,48.57
2022-08-18T09:50:56.943Z,49.25
2022-08-18T09:53:53.606Z,47.89
2022-08-18T09:56:58.026Z,49.54
2022-08-18T09:59:53.804Z,49.18
2022-08-18T10:03:11.328Z,49.17
2022-08-18T10:05:39.982Z,49.36
2022-08-18T10:08:38.426Z,49.32
2022-08-18T10:11:30.085Z,48.30
2022-08-18T10:14:15.918Z,47.34
2022-08-18T10:17:21.338Z,48.31
2022-08-18T10:19:58.540Z,47.96
2022-08-18T10:22:39.815Z,48.85
2022-08-18T10:25:22.146Z,47.40
2022-08-18T10:27:55.436Z,46.78
2022-08-18T10:34:05.516Z,46.48
2022-08-18T10:36:51.264Z,45.87
2022-08-18T10:39:22.385Z,45.47
2022-08-18T10:41:58.501Z,45.86
2022-08-18T10:47:33.589Z,44.13
2022-08-18T10:50:05.805Z,44.54
2022-08-18T10:55:54.785Z,43.59
2022-08-18T10:58:37.621Z,45.67
2022-08-18T11:01:25.896Z,46.74
2022-08-18T11:04:13.821Z,47.35
2022-08-18T11:06:48.153Z,46.91
2022-08-18T11:09:26.057Z,46.90
2022-08-18T11:11:59.484Z,44.94
2022-08-18T11:17:44.209Z,40.76
2022-08-18T11:20:15.567Z,39.94
2022-08-18T11:22:56.529Z,40.63
2022-08-18T11:25:29.084Z,40.20
2022-08-18T11:27:57.972Z,39.85
2022-08-18T11:30:32.996Z,37.10
2022-08-18T11:33:04.796Z,38.90
2022-08-18T11:35:35.498Z,38.33
2022-08-18T11:38:06.282Z,38.88
2022-08-18T11:41:10.489Z,37.56
2022-08-18T11:43:41.962Z,38.02
2022-08-18T11:46:30.499Z,38.99
2022-08-18T11:49:01.084Z,38.22
2022-08-18T11:51:32.613Z,36.85
2022-08-18T11:54:04.893Z,37.29
2022-08-18T11:56:37.913Z,36.62
2022-08-18T11:59:11.677Z,37.39
2022-08-18T12:04:40.968Z,37.69
2022-08-18T12:07:13.454Z,37.04
2022-08-18T12:10:18.086Z,37.45
2022-08-18T12:12:35.877Z,38.37
2022-08-18T12:15:25.291Z,38.31
2022-08-18T12:17:59.183Z,38.70
2022-08-18T12:20:28.610Z,38.61
2022-08-18T12:22:58.159Z,38.90
2022-08-18T12:25:26.468Z,38.48
2022-08-18T12:27:54.787Z,38.15
2022-08-18T12:33:12.869Z,39.79
2022-08-18T12:35:42.269Z,40.17
2022-08-18T12:38:13.267Z,40.00
2022-08-18T12:40:43.317Z,39.46
2022-08-18T12:43:37.341Z,40.16
2022-08-18T12:46:11.950Z,40.50
2022-08-18T12:48:41.593Z,39.46
2022-08-18T12:51:10.970Z,39.16
2022-08-18T12:56:31.847Z,39.61
2022-08-18T12:59:03.937Z,39.19
2022-08-18T13:01:33.414Z,38.52
2022-08-18T13:04:12.552Z,39.39
2022-08-18T13:06:59.520Z,39.82
2022-08-18T13:09:35.029Z,39.31
2022-08-18T13:12:19.629Z,38.19
2022-08-18T13:14:50.876Z,38.69
2022-08-18T13:17:29.168Z,38.80
2022-08-18T13:20:05.669Z,38.61
2022-08-18T13:22:34.246Z,39.06
2022-08-18T13:25:03.546Z,39.05
2022-08-18T13:27:32.903Z,39.93
2022-08-18T13:30:29.654Z,39.24
2022-08-18T13:32:58.784Z,39.63
2022-08-18T13:35:38.332Z,39.03
2022-08-18T13:38:17.433Z,37.76
2022-08-18T13:40:48.455Z,37.93
2022-08-18T13:43:18.098Z,38.81
2022-08-18T13:45:53.193Z,39.38
2022-08-18T13:48:25.371Z,39.63
2022-08-18T13:50:56.778Z,40.28
2022-08-18T13:53:26.353Z,40.54
2022-08-18T13:55:58.994Z,40.87
2022-08-18T13:58:28.917Z,40.28
2022-08-18T14:01:15.931Z,39.84
2022-08-18T14:03:47.880Z,40.08
2022-08-18T14:06:22.562Z,40.60
2022-08-18T14:08:51.956Z,40.61
2022-08-18T14:11:21.271Z,39.19
2022-08-18T14:13:49.933Z,38.39
2022-08-18T14:16:19.527Z,39.84
2022-08-18T14:19:09.751Z,39.85
2022-08-18T14:22:01.247Z,40.50
2022-08-18T14:24:49.126Z,44.89
2022-08-18T14:27:17.970Z,51.45
2022-08-18T14:29:48.703Z,60.42
2022-08-18T14:32:29.308Z,65.62
2022-08-18T14:35:00.698Z,67.37
2022-08-18T14:37:31.402Z,61.71
2022-08-18T14:40:03.927Z,71.95
2022-08-18T14:42:41.668Z,72.19
2022-08-18T14:45:31.266Z,86.40
2022-08-18T14:48:04.456Z,83.95
2022-08-18T14:50:36.904Z,77.88
2022-08-18T14:53:07.013Z,79.86
2022-08-18T14:55:35.873Z,88.34
2022-08-18T14:58:07.303Z,98.54
2022-08-18T15:00:53.304Z,94.68
2022-08-18T15:03:31.082Z,84.16
2022-08-18T15:06:04.847Z,81.93
2022-08-18T15:08:36.402Z,78.43
2022-08-18T15:11:11.642Z,84.60
2022-08-18T15:13:43.462Z,91.92
2022-08-18T15:16:13.787Z,95.72
2022-08-18T15:18:42.679Z,98.29
2022-08-18T15:21:38.863Z,82.30
2022-08-18T15:24:26.390Z,81.80
2022-08-18T15:26:56.731Z,90.05
2022-08-18T15:29:29.194Z,93.04
2022-08-18T15:32:02.228Z,97.02
2022-08-18T15:34:46.067Z,98.38
2022-08-18T15:37:15.848Z,95.56
2022-08-18T15:39:55.530Z,94.45
2022-08-18T15:42:24.569Z,99.66
2022-08-18T15:44:53.895Z,100.00
2022-08-18T15:47:25.084Z,95.82
2022-08-18T15:49:54.909Z,87.50
2022-08-18T15:52:24.573Z,78.09
2022-08-18T15:54:57.106Z,72.86
2022-08-18T15:57:38.597Z,71.82
2022-08-18T16:00:12.480Z,73.88
2022-08-18T16:02:44.757Z,73.46
2022-08-18T16:05:17.979Z,84.57
2022-08-18T16:07:47.738Z,78.71
2022-08-18T16:10:19.109Z,76.39
2022-08-18T16:12:48.313Z,69.52
2022-08-18T16:15:19.690Z,68.91
2022-08-18T16:17:50.866Z,68.79
2022-08-18T16:20:20.224Z,70.33
2022-08-18T16:22:49.211Z,69.69
2022-08-18T16:25:18.931Z,70.97
2022-08-18T16:27:47.897Z,71.46
2022-08-18T16:30:18.980Z,70.80
2022-08-18T16:32:47.421Z,73.14
2022-08-18T16:35:17.173Z,71.30
2022-08-18T16:37:46.733Z,73.64
2022-08-18T16:40:15.950Z,78.10
2022-08-18T16:42:45.883Z,80.31
2022-08-18T16:45:16.085Z,80.18
2022-08-18T16:47:44.226Z,83.07
2022-08-18T16:50:18.029Z,79.29
2022-08-18T16:52:46.284Z,77.17
2022-08-18T16:55:14.514Z,80.20
2022-08-18T16:58:02.795Z,79.29
2022-08-18T17:00:55.049Z,80.17
2022-08-18T17:03:40.957Z,82.27
2022-08-18T17:06:12.278Z,85.11
2022-08-18T17:08:42.021Z,87.85
2022-08-18T17:11:12.622Z,90.90
2022-08-18T17:13:43.138Z,93.33
2022-08-18T17:16:12.526Z,95.33
2022-08-18T17:18:41.091Z,97.19
2022-08-18T17:21:13.224Z,98.19
2022-08-18T17:23:42.946Z,98.45
2022-08-18T17:26:17.684Z,99.95
2022-08-18T17:28:53.729Z,99.54
2022-08-18T17:31:25.296Z,100.00
2022-08-18T17:33:58.529Z,100.00
2022-08-18T17:36:34.396Z,100.00
2022-08-18T17:39:06.241Z,100.00
2022-08-18T17:41:57.021Z,100.00
2022-08-18T17:44:28.660Z,100.00
2022-08-18T17:47:02.332Z,100.00
2022-08-18T17:49:54.412Z,100.00
2022-08-18T17:52:45.760Z,100.00
2022-08-18T17:55:26.191Z,100.00
2022-08-18T17:58:01.645Z,100.00
2022-08-18T18:00:32.567Z,100.00
2022-08-18T18:03:01.219Z,100.00
2022-08-18T18:05:36.561Z,100.00
2022-08-18T18:08:05.888Z,100.00
2022-08-18T18:10:51.175Z,100.00
2022-08-18T18:13:28.810Z,100.00
2022-08-18T18:16:00.814Z,100.00
2022-08-18T18:18:36.829Z,100.00
2022-08-18T18:21:08.896Z,100.00
2022-08-18T18:23:41.506Z,100.00
2022-08-18T18:26:34.699Z,100.00
2022-08-18T18:29:19.179Z,100.00
2022-08-18T18:32:00.465Z,100.00
2022-08-18T18:34:39.310Z,100.00
2022-08-18T18:37:25.974Z,100.00
2022-08-18T18:39:59.225Z,100.00
2022-08-18T18:42:30.996Z,100.00
2022-08-18T18:45:01.425Z,100.00
2022-08-18T18:47:47.360Z,100.00
2022-08-18T18:50:23.874Z,100.00
2022-08-18T18:53:03.669Z,100.00
2022-08-18T18:55:37.541Z,100.00
2022-08-18T18:58:18.440Z,100.00
2022-08-18T19:00:54.056Z,100.00
2022-08-18T19:03:33.897Z,100.00
2022-08-18T19:06:19.623Z,100.00
2022-08-18T19:08:59.615Z,100.00
2022-08-18T19:11:34.602Z,100.00
2022-08-18T19:14:09.583Z,100.00
2022-08-18T19:16:42.546Z,100.00
2022-08-18T19:19:36.708Z,100.00
2022-08-18T19:22:09.822Z,100.00
2022-08-18T19:24:46.306Z,100.00
2022-08-18T19:27:23.720Z,100.00
2022-08-18T19:29:58.138Z,100.00
2022-08-18T19:32:35.018Z,100.00
2022-08-18T19:35:10.570Z,100.00
2022-08-18T19:38:01.874Z,100.00
2022-08-18T19:40:43.209Z,100.00
2022-08-18T19:43:24.852Z,100.00
2022-08-18T19:45:57.824Z,100.00
2022-08-18T19:48:31.153Z,100.00
2022-08-18T19:51:07.324Z,100.00
2022-08-18T19:54:04.247Z,100.00
2022-08-18T19:56:48.947Z,100.00
2022-08-18T19:59:45.316Z,100.00
2022-08-18T20:02:33.956Z,100.00
2022-08-18T20:05:14.360Z,100.00
2022-08-18T20:08:15.534Z,100.00
2022-08-18T20:11:08.253Z,100.00
2022-08-18T20:13:42.907Z,100.00
2022-08-18T20:16:44.137Z,100.00
2022-08-18T20:19:40.483Z,100.00
2022-08-18T20:22:16.164Z,100.00
2022-08-18T20:24:57.423Z,100.00
2022-08-18T20:27:35.891Z,100.00
2022-08-18T20:30:26.320Z,100.00
2022-08-18T20:33:15.448Z,100.00
2022-08-18T20:35:52.609Z,100.00
2022-08-18T20:38:33.786Z,100.00
2022-08-18T20:41:50.464Z,100.00
2022-08-18T20:44:37.971Z,100.00
2022-08-18T20:47:29.217Z,100.00
2022-08-18T20:50:19.137Z,100.00
2022-08-18T20:52:55.688Z,100.00
2022-08-18T20:55:31.073Z,100.00
2022-08-18T20:58:08.260Z,100.00
2022-08-18T21:00:42.629Z,100.00
2022-08-18T21:03:14.711Z,100.00
2022-08-18T21:05:46.424Z,100.00
2022-08-18T21:08:26.429Z,100.00
2022-08-18T21:10:57.854Z,100.00
2022-08-18T21:13:38.380Z,100.00
2022-08-18T21:16:07.055Z,100.00
2022-08-18T21:18:35.316Z,100.00
2022-08-18T21:21:07.330Z,100.00
2022-08-18T21:23:40.314Z,100.00
2022-08-18T21:26:13.186Z,100.00
2022-08-18T21:28:47.056Z,100.00
2022-08-18T21:31:41.654Z,100.00
2022-08-18T21:34:18.590Z,100.00
2022-08-18T21:36:52.483Z,100.00
2022-08-18T21:39:21.311Z,100.00
2022-08-18T21:41:53.144Z,100.00
2022-08-18T21:44:25.302Z,100.00
2022-08-18T21:47:05.622Z,100.00
2022-08-18T21:49:34.005Z,100.00
2022-08-18T21:52:02.234Z,100.00
2022-08-18T21:54:34.773Z,100.00
2022-08-18T21:57:19.729Z,100.00
2022-08-18T22:00:17.181Z,100.00
2022-08-18T22:02:46.174Z,100.00
2022-08-18T22:05:27.099Z,100.00
2022-08-18T22:07:55.454Z,100.00
2022-08-18T22:10:45.309Z,100.00
2022-08-18T22:13:37.491Z,100.00
2022-08-18T22:16:27.042Z,100.00
2022-08-18T22:19:11.534Z,100.00
2022-08-18T22:21:43.336Z,100.00
2022-08-18T22:24:21.918Z,100.00
2022-08-18T22:27:04.407Z,100.00
2022-08-18T22:29:45.683Z,100.00
2022-08-18T22:32:15.898Z,100.00
2022-08-18T22:34:44.597Z,100.00
2022-08-18T22:37:15.439Z,100.00
2022-08-18T22:39:52.464Z,100.00
2022-08-18T22:42:23.119Z,100.00
2022-08-18T22:44:51.758Z,100.00
2022-08-18T22:47:23.917Z,100.00
2022-08-18T22:49:52.252Z,100.00
2022-08-18T22:52:29.706Z,100.00
2022-08-18T22:54:58.771Z,100.00
2022-08-18T22:57:28.839Z,100.00
2022-08-18T22:59:58.211Z,100.00
2022-08-18T23:02:29.778Z,100.00
2022-08-18T23:04:57.981Z,100.00
2022-08-18T23:07:26.462Z,100.00
2022-08-18T23:09:54.758Z,100.00
2022-08-18T23:12:23.654Z,100.00
2022-08-18T23:14:51.852Z,100.00
2022-08-18T23:17:21.421Z,100.00
2022-08-18T23:19:52.049Z,100.00
2022-08-18T23:22:20.597Z,100.00
2022-08-18T23:24:48.858Z,100.00
2022-08-18T23:27:18.338Z,100.00
2022-08-18T23:29:46.810Z,100.00
2022-08-18T23:32:15.326Z,100.00
2022-08-18T23:34:43.487Z,100.00
2022-08-18T23:37:13.066Z,100.00
2022-08-18T23:39:43.927Z,100.00
2022-08-18T23:42:13.081Z,100.00
2022-08-18T23:44:42.260Z,100.00
2022-08-18T23:47:10.510Z,100.00
2022-08-18T23:49:38.688Z,100.00
2022-08-18T23:52:08.114Z,100.00
2022-08-18T23:54:37.678Z,100.00
2022-08-18T23:57:06.403Z,100.00
2022-08-18T23:59:34.590Z,100.00
